Weather observations for the past three days for
Dickson Municipal Airport
Imperial (Metric)
Date Time (cdt) Wind (mph) Vis. (mi.) Weather Sky Cond. Temperature (ºF) Relative Humidity Wind Chill (°F) Heat Index (°F) Pressure Precipitation (in)
Air Dwpt 6 hour altimeter (in) sea level (mb) 1 hr 3 hr 6 hr
Max. Min.
04 20:15 S 9 10.00 NULL NULL 68 46.4 46% 29.82 0.0
04 19:55 S 9 10.00 NULL NULL 68 46.4 46% 29.83 0.0
04 19:35 S 8 10.00 NULL NULL 71.6 46.4 41% 29.82 0.0
04 19:15 SW 9 G 15 10.00 NULL NULL 73.4 46.4 38% 29.83 0.0
04 18:55 SW 9 G 16 10.00 NULL NULL 75.2 46.4 36% 77 29.83 0.0
04 18:35 SW 10 G 16 10.00 NULL NULL 75.2 46.4 36% 77 29.83 0.0
04 18:15 SW 10 G 17 10.00 NULL NULL 77 46.4 34% 78 29.83 0.0
04 17:55 SW 8 G 16 10.00 NULL NULL 75.2 48.2 39% 77 29.83 0.0
04 17:35 SW 16 G 22 10.00 NULL NULL 78.8 48.2 34% 79 29.83 0.0
04 17:15 SW 14 G 24 10.00 NULL NULL 78.8 48.2 34% 79 29.83 0.0
04 16:55 SW 12 G 26 10.00 NULL NULL 77 46.4 34% 78 29.83 0.0
04 16:35 SW 16 G 25 10.00 NULL NULL 78.8 48.2 34% 79 29.83 0.0
04 16:15 SW 14 G 26 10.00 NULL NULL 78.8 46.4 32% 79 29.83 0.0
04 15:55 SW 15 G 28 10.00 NULL NULL 78.8 46.4 32% 79 29.83 0.0
04 15:35 SW 17 10.00 NULL NULL 78.8 48.2 34% 79 29.84 0.0
04 15:15 SW 17 G 23 10.00 NULL NULL 78.8 48.2 34% 79 29.84 0.0
04 14:55 SW 16 G 30 10.00 NULL NULL 78.8 48.2 34% 79 29.86 0.0
04 14:35 SW 16 G 24 10.00 NULL NULL 78.8 50 37% 79 29.86 0.0
04 14:15 SW 14 G 22 10.00 NULL NULL 78.8 50 37% 79 29.87 0.0
04 13:55 SW 16 G 25 10.00 NULL NULL 77 48.2 36% 78 29.88 0.0
04 13:35 SW 14 G 22 10.00 NULL NULL 77 50 39% 78 29.88 0.0
04 13:15 SW 18 10.00 NULL NULL 77 50 39% 78 29.89 0.0
04 12:55 SW 13 G 18 10.00 NULL NULL 77 50 39% 78 29.89 0.0
04 12:35 SW 13 G 20 10.00 NULL NULL 77 51.8 42% 78 29.9 0.0
04 12:15 SW 13 G 20 10.00 NULL NULL 75.2 50 41% 78 29.9 0.0
04 11:55 SW 14 10.00 NULL NULL 75.2 50 41% 78 29.91 0.0
04 11:35 SW 16 10.00 NULL NULL 75.2 50 41% 78 29.92 0.0
04 11:15 W 12 G 17 10.00 NULL NULL 73.4 50 44% 29.93 0.0
04 10:55 SW 15 G 22 10.00 NULL NULL 73.4 50 44% 29.93 0.0
04 10:35 SW 14 G 21 10.00 NULL NULL 73.4 50 44% 29.94 0.0
04 10:15 SW 13 10.00 NULL NULL 71.6 50 47% 29.93 0.0
04 09:55 SW 13 10.00 NULL NULL 69.8 50 50% 29.94 0.0
04 09:35 SW 13 10.00 NULL NULL 68 50 53% 29.94 0.0
04 09:15 SW 12 G 18 10.00 NULL NULL 66.2 50 56% 29.94 0.0
04 08:55 SW 13 10.00 NULL NULL 62.6 48.2 60% 29.94 0.0
04 08:35 SW 15 10.00 NULL NULL 60.8 48.2 63% 29.94 0.0
04 08:15 SW 10 G 18 10.00 NULL NULL 59 46.4 63% 29.94 0.0
04 07:55 SW 12 10.00 NULL NULL 57.2 46.4 67% 29.94 0.0
04 07:35 SW 9 10.00 NULL NULL 57.2 44.6 63% 29.94 0.0
04 07:15 SW 8 10.00 NULL NULL 55.4 44.6 67% 29.93 0.0
04 06:55 SW 9 10.00 NULL NULL 55.4 42.8 63% 29.94 0.0
04 06:35 SW 9 10.00 NULL NULL 53.6 42.8 67% 29.93 0.0
04 06:15 SW 9 10.00 NULL NULL 53.6 42.8 67% 29.92 0.0
04 05:55 SW 12 10.00 NULL NULL 53.6 42.8 67% 29.92 0.0
04 05:35 SW 13 10.00 NULL NULL 55.4 42.8 63% 29.92 0.0
04 05:15 SW 12 10.00 NULL NULL 53.6 42.8 67% 29.92 0.0
04 04:55 SW 10 10.00 NULL NULL 53.6 41 63% 29.92 0.0
04 04:35 SW 9 10.00 NULL NULL 51.8 41 67% 29.93 0.0
04 04:15 SW 8 10.00 NULL NULL 53.6 41 63% 29.93 0.0
04 03:55 SW 10 10.00 NULL NULL 53.6 41 63% 29.93 0.0
04 03:35 SW 10 10.00 NULL NULL 53.6 41 63% 29.93 0.0
04 03:15 SW 10 10.00 NULL NULL 53.6 41 63% 29.93 0.0
04 02:55 SW 10 10.00 NULL NULL 53.6 41 63% 29.93 0.0
04 02:35 SW 13 10.00 NULL NULL 53.6 41 63% 29.94 0.0
04 02:15 SW 12 10.00 NULL NULL 53.6 41 63% 29.94 0.0
04 01:55 SW 13 10.00 NULL NULL 53.6 41 63% 29.94 0.0
04 01:35 SW 9 10.00 NULL NULL 53.6 41 63% 29.95 0.0
04 01:15 SW 9 10.00 NULL NULL 53.6 41 63% 29.96 0.0
04 00:55 SW 9 G 16 10.00 NULL NULL 55.4 41 59% 29.96 0.0
04 00:35 SW 10 G 16 10.00 NULL NULL 55.4 41 59% 29.96 0.0
04 00:15 SW 15 G 23 10.00 NULL NULL 55.4 39.2 55% 29.96 0.0
03 23:55 SW 15 10.00 NULL NULL 57.2 39.2 51% 29.96 0.0
03 23:35 SW 14 G 20 10.00 NULL NULL 55.4 39.2 55% 29.96 0.0
03 23:15 SW 13 10.00 NULL NULL 57.2 39.2 51% 29.97 0.0
03 22:55 SW 10 10.00 NULL NULL 55.4 39.2 55% 29.98 0.0
03 22:15 SW 8 10.00 NULL NULL 55.4 39.2 55% 29.99 0.0
03 21:55 SW 8 10.00 NULL NULL 55.4 39.2 55% 29.99 0.0
03 21:35 SW 9 10.00 NULL NULL 57.2 39.2 51% 29.98 0.0
03 21:15 SW 9 G 15 10.00 NULL NULL 59 39.2 48% 29.98 0.0
03 20:55 SW 9 10.00 NULL NULL 57.2 39.2 51% 29.97 0.0
03 20:35 SW 9 10.00 NULL NULL 57.2 39.2 51% 29.97 0.0
03 20:15 S 7 10.00 NULL NULL 57.2 39.2 51% 29.97 0.0
03 19:55 S 7 10.00 NULL NULL 59 39.2 48% 29.97 0.0
03 19:35 SW 5 10.00 NULL NULL 60.8 37.4 42% 29.98 0.0
03 19:15 SW 7 10.00 NULL NULL 62.6 37.4 39% 29.98 0.0
03 18:55 SW 8 10.00 NULL NULL 64.4 37.4 37% 29.98 0.0
03 18:35 SW 12 10.00 NULL NULL 66.2 35.6 32% 29.99 0.0
03 18:15 W 8 G 15 10.00 NULL NULL 66.2 35.6 32% 30 0.0
03 17:55 SW 13 10.00 NULL NULL 66.2 37.4 35% 30 0.0
03 17:35 SW 8 G 14 10.00 NULL NULL 66.2 37.4 35% 30.01 0.0
03 17:15 SW 12 G 20 10.00 NULL NULL 66.2 35.6 32% 30.01 0.0
03 16:55 W 14 10.00 NULL NULL 66.2 35.6 32% 30.02 0.0
03 16:35 SW 9 G 21 10.00 NULL NULL 66.2 35.6 32% 30.03 0.0
03 16:15 SW 9 G 21 10.00 NULL NULL 66.2 35.6 32% 30.04 0.0
03 15:55 W 10 G 22 10.00 NULL NULL 66.2 35.6 32% 30.05 0.0
03 15:35 W 14 10.00 NULL NULL 68 35.6 30% 30.06 0.0
03 15:15 W 7 G 17 10.00 NULL NULL 66.2 33.8 30% 30.07 0.0
03 14:55 Vrbl 8 G 15 10.00 NULL NULL 66.2 33.8 30% 30.09 0.0
03 14:35 NW 8 G 15 10.00 NULL NULL 64.4 33.8 32% 30.09 0.0
03 14:15 W 12 10.00 NULL NULL 64.4 32 30% 30.1 0.0
03 13:55 W 8 G 20 10.00 NULL NULL 64.4 33.8 32% 30.11 0.0
03 13:35 W 9 10.00 NULL NULL 64.4 33.8 32% 30.11 0.0
03 13:15 SW 10 G 20 10.00 NULL NULL 64.4 33.8 32% 30.12 0.0
03 12:55 S 9 G 16 10.00 NULL NULL 62.6 33.8 34% 30.13 0.0
03 12:35 Vrbl 6 G 13 10.00 NULL NULL 62.6 33.8 34% 30.14 0.0
03 12:15 SW 8 10.00 NULL NULL 62.6 32 32% 30.14 0.0
03 11:55 W 8 10.00 NULL NULL 60.8 32 34% 30.15 0.0
03 11:35 Vrbl 3 10.00 NULL NULL 59 32 36% 30.16 0.0
03 11:15 SW 6 10.00 NULL NULL 59 33.8 39% 30.16 0.0
03 10:55 Calm 10.00 NULL NULL 57.2 32 39% 30.17 0.0
03 10:35 SE 3 G 12 10.00 NULL NULL 57.2 32 39% 30.17 0.0
03 10:15 S 8 10.00 NULL NULL 57.2 33.8 41% 30.17 0.0
03 09:55 SW 9 10.00 NULL NULL 57.2 33.8 41% 30.17 0.0
03 09:35 Vrbl 3 10.00 NULL NULL 57.2 33.8 41% 30.17 0.0
03 09:15 Vrbl 5 10.00 NULL NULL 55.4 33.8 44% 30.17 0.0
03 08:55 Vrbl 3 10.00 NULL NULL 53.6 39.2 58% 30.17 0.0
03 08:35 S 6 10.00 NULL NULL 51.8 41 67% 30.17 0.0
03 08:15 Calm 10.00 NULL NULL 50 42.8 76% 30.17 0.0
03 07:55 SE 3 10.00 NULL NULL 48.2 44.6 87% 30.17 0.0
03 07:35 Calm 9.00 NULL NULL 46.4 46.4 100% 30.16 0.0
03 07:15 Calm 5.00 Fog/Mist NULL 42.8 42.8 100% 30.16 0.0
03 06:55 Calm 5.00 Fog/Mist NULL 41 41 100% 30.15 0.0
03 06:35 Calm 6.00 Fog/Mist NULL 39.2 39.2 100% 30.15 0.0
03 06:15 Calm 7.00 NULL NULL 39.2 37.4 93% 30.14 0.0
03 05:55 Calm 8.00 NULL NULL 37.4 37.4 100% 30.13 0.0
03 05:35 Calm 8.00 NULL NULL 37.4 37.4 100% 30.12 0.0
03 05:15 Calm 8.00 NULL NULL 37.4 37.4 100% 30.12 0.0
03 04:55 Calm 10.00 NULL NULL 39.2 39.2 100% 30.12 0.0
03 04:35 Calm 10.00 NULL NULL 39.2 39.2 100% 30.12 0.0
03 04:15 Calm 9.00 NULL NULL 39.2 39.2 100% 30.13 0.0
03 03:55 Calm 10.00 NULL NULL 39.2 39.2 100% 30.13 0.0
03 03:35 Calm 10.00 NULL NULL 41 39.2 93% 30.13 0.0
03 03:15 Calm 10.00 NULL NULL 41 39.2 93% 30.12 0.0
03 02:55 Calm 10.00 NULL NULL 41 39.2 93% 30.12 0.0
03 02:35 Calm 9.00 NULL NULL 41 41 100% 30.12 0.0
03 02:15 Calm 10.00 NULL NULL 41 39.2 93% 30.12 0.0
03 01:55 Calm 8.00 NULL NULL 41 41 100% 30.12 0.0
03 01:35 Calm 9.00 NULL NULL 41 41 100% 30.12 0.0
03 01:15 Calm 10.00 NULL NULL 41 41 100% 30.12 0.0
03 00:55 Calm 10.00 NULL NULL 41 41 100% 30.12 0.0
03 00:35 Calm 10.00 NULL NULL 42.8 41 93% 30.13 0.0
03 00:15 Calm 10.00 NULL NULL 42.8 41 93% 30.13 0.0
02 23:55 Calm 10.00 NULL NULL 42.8 41 93% 30.12 0.0
02 23:35 Calm 10.00 NULL NULL 42.8 41 93% 30.12 0.0
02 23:15 Calm 10.00 NULL NULL 42.8 41 93% 30.11 0.0
02 22:55 Calm 10.00 NULL NULL 42.8 41 93% 30.11 0.0
02 22:35 Calm 10.00 NULL NULL 42.8 41 93% 30.11 0.0
02 22:15 Calm 10.00 NULL NULL 44.6 42.8 93% 30.11 0.0
02 21:55 Calm 10.00 NULL NULL 44.6 42.8 93% 30.1 0.0
02 21:35 Calm 10.00 NULL NULL 44.6 42.8 93% 30.1 0.0
02 21:15 Calm 10.00 NULL NULL 44.6 42.8 93% 30.09 0.0
02 20:55 Calm 10.00 NULL NULL 46.4 42.8 87% 30.09 0.0
02 20:35 NE 3 10.00 NULL NULL 46.4 42.8 87% 30.08 0.0
02 20:15 NE 3 10.00 NULL NULL 48.2 42.8 82% 30.07 0.0
02 19:55 NE 5 10.00 NULL NULL 48.2 42.8 82% 47 30.07 0.0
02 19:35 N 8 10.00 NULL NULL 50 42.8 76% 47 30.07 0.0
02 19:15 N 13 10.00 NULL NULL 51.8 42.8 72% 30.06 0.0
02 18:55 N 10 10.00 NULL NULL 53.6 42.8 67% 30.05 0.0
02 18:35 N 8 10.00 NULL NULL 53.6 44.6 72% 30.04 0.0
02 18:15 N 13 10.00 NULL NULL 55.4 44.6 67% 30.04 0.0
02 17:55 N 14 G 21 10.00 NULL NULL 55.4 42.8 63% 30.03 0.0
02 17:35 N 15 G 21 10.00 NULL NULL 55.4 42.8 63% 30.02 0.0
02 17:15 N 13 G 20 10.00 NULL NULL 55.4 44.6 67% 30.01 0.0
02 16:55 N 9 10.00 NULL NULL 57.2 46.4 67% 30 0.0
02 16:35 Calm 10.00 NULL NULL 55.4 44.6 67% 29.98 0.0
02 16:15 N 20 G 30 10.00 NULL NULL 59 39.2 48% 30 0.0
02 15:55 SW 5 G 13 10.00 NULL NULL 59 41 51% 29.99 0.0
02 15:35 SW 16 G 24 7.00 NULL NULL 59 37.4 45% 29.99 0.0
02 15:15 Vrbl 5 10.00 NULL NULL 62.6 35.6 37% 29.99 0.0
02 14:55 SW 9 G 15 10.00 NULL NULL 59 37.4 45% 30 0.0
02 14:35 SW 14 G 20 4.00 Haze NULL 57.2 39.2 51% 30.01 0.0
02 14:15 W 7 G 14 10.00 NULL NULL 62.6 33.8 34% 30 0.0
02 13:55 NW 7 G 13 10.00 NULL NULL 62.6 33.8 34% 30 0.0
02 13:35 W 13 10.00 NULL NULL 62.6 32 32% 30.01 0.0
02 13:15 Vrbl 6 10.00 NULL NULL 62.6 33.8 34% 30.02 0.0
02 12:55 Vrbl 5 G 13 10.00 NULL NULL 60.8 33.8 36% 30.02 0.0
02 12:35 W 7 G 13 10.00 NULL NULL 62.6 32 32% 30.03 0.0
02 12:15 N 8 10.00 NULL NULL 62.6 33.8 34% 30.03 0.0
02 11:55 N 13 10.00 NULL NULL 62.6 33.8 34% 30.04 0.0
02 11:35 W 6 G 12 10.00 NULL NULL 60.8 32 34% 30.04 0.0
02 11:15 Vrbl 5 10.00 NULL NULL 60.8 33.8 36% 30.05 0.0
02 10:55 N 7 G 13 10.00 NULL NULL 60.8 33.8 36% 30.05 0.0
02 10:35 Calm 10.00 NULL NULL 60.8 33.8 36% 30.05 0.0
02 10:15 Vrbl 5 10.00 NULL NULL 59 33.8 39% 30.05 0.0
02 09:55 N 3 10.00 NULL NULL 59 35.6 42% 30.05 0.0
02 09:35 NE 5 10.00 NULL NULL 57.2 35.6 44% 30.05 0.0
02 09:15 Vrbl 6 10.00 NULL NULL 55.4 35.6 47% 30.04 0.0
02 08:55 Vrbl 5 10.00 NULL NULL 55.4 37.4 51% 30.04 0.0
02 08:35 Calm 10.00 NULL NULL 53.6 39.2 58% 30.04 0.0
02 08:15 E 6 10.00 NULL NULL 51.8 37.4 58% 30.04 0.0
02 07:55 E 3 10.00 NULL NULL 50 37.4 62% 30.03 0.0
02 07:35 E 3 10.00 NULL NULL 48.2 37.4 66% 30.03 0.0
02 07:15 Calm 10.00 NULL NULL 46.4 41 82% 30.02 0.0
02 06:55 Calm 10.00 NULL NULL 42.8 39.2 87% 30.02 0.0
02 06:35 Calm 10.00 NULL NULL 41 37.4 87% 30.02 0.0
02 06:15 Calm 10.00 NULL NULL 41 37.4 87% 30.01 0.0
02 05:55 Calm 10.00 NULL NULL 41 37.4 87% 30.01 0.0
02 05:35 Calm 10.00 NULL NULL 42.8 37.4 81% 30.01 0.0
02 05:15 E 3 10.00 NULL NULL 42.8 37.4 81% 30 0.0
02 04:55 Calm 10.00 NULL NULL 42.8 35.6 76% 30.01 0.0
02 04:35 N 3 10.00 NULL NULL 42.8 37.4 81% 30.01 0.0
02 04:15 Calm 10.00 NULL NULL 44.6 37.4 76% 30.01 0.0
02 03:55 Calm 10.00 NULL NULL 46.4 35.6 66% 30 0.0
02 03:35 NE 3 10.00 NULL NULL 46.4 35.6 66% 30.01 0.0
02 03:15 NE 5 10.00 NULL NULL 46.4 35.6 66% 45 30 0.0
02 02:55 NE 5 10.00 NULL NULL 46.4 35.6 66% 45 30.01 0.0
02 02:35 NE 3 10.00 NULL NULL 48.2 35.6 62% 30.02 0.0
02 02:15 NE 5 10.00 NULL NULL 48.2 35.6 62% 47 30.02 0.0
02 01:55 NE 3 10.00 NULL NULL 48.2 35.6 62% 30.02 0.0
02 01:35 N 6 10.00 NULL NULL 48.2 35.6 62% 46 30.02 0.0
02 01:15 N 6 10.00 NULL NULL 46.4 37.4 71% 44 30.03 0.0
02 00:55 Calm 10.00 NULL NULL 48.2 35.6 62% 30.04 0.0
02 00:35 Calm 10.00 NULL NULL 48.2 35.6 62% 30.03 0.0
02 00:15 NE 5 10.00 NULL NULL 48.2 35.6 62% 47 30.02 0.0
01 23:55 N 6 10.00 NULL NULL 48.2 35.6 62% 46 30.01 0.0
01 23:35 N 6 10.00 NULL NULL 48.2 35.6 62% 46 30.01 0.0
01 23:15 NE 5 10.00 NULL NULL 48.2 35.6 62% 47 30.02 0.0
01 22:55 NE 5 10.00 NULL NULL 48.2 35.6 62% 47 30.03 0.0
01 22:35 N 6 10.00 NULL NULL 48.2 35.6 62% 46 30.04 0.0
01 22:15 N 6 10.00 NULL NULL 50 35.6 58% 48 30.04 0.0
01 21:55 N 5 10.00 NULL NULL 50 35.6 58% 49 30.05 0.0
01 21:35 N 7 10.00 NULL NULL 50 35.6 58% 48 30.04 0.0
01 21:15 N 6 10.00 NULL NULL 50 35.6 58% 48 30.04 0.0
01 20:55 N 5 10.00 NULL NULL 50 35.6 58% 49 30.03 0.0
01 20:35 N 5 10.00 NULL NULL 51.8 35.6 54% 30.02 0.0
Date Time (cdt) Wind (mph) Vis. (mi.) Weather Sky Cond. Air Dwpt Max. Min. Relative Humidity Wind Chill (°F) Heat Index (°F) altimeter (in) sea level (mb) 1 hr 3 hr 6 hr
6 hour
Temperature (ºF) Pressure Precipitation (in)